Time;durP1;ratioP1;P1;durP2;ratioP2;P2;SDS_P1;SDS_P2;PMS_P1;PMS_P2;Temp;Humidity;BMP_temperature;BMP_pressure;BME280_temperature;BME280_humidity;BME280_pressure;Samples;Min_cycle;Max_cycle;Signal;HPM_P1;HPM_P2
2021/08/30 00:02:24;;;;;;;23.20;17.08;;;15.50;91.70;;;;;;5061376;28;20183;-91
2021/08/30 00:04:50;;;;;;;21.27;17.00;;;15.50;91.60;;;;;;5061370;28;20207;-91
2021/08/30 00:07:16;;;;;;;19.42;16.90;;;15.50;91.70;;;;;;5061461;28;20168;-91
2021/08/30 00:09:41;;;;;;;26.40;18.35;;;15.40;91.70;;;;;;5061385;28;20164;-91
2021/08/30 00:12:07;;;;;;;22.33;18.20;;;15.50;91.80;;;;;;5061314;28;20215;-90
2021/08/30 00:14:34;;;;;;;22.67;16.88;;;15.50;91.80;;;;;;5061360;28;20149;-92
2021/08/30 00:16:59;;;;;;;23.45;17.48;;;15.40;91.80;;;;;;5078608;28;20198;-90
2021/08/30 00:19:26;;;;;;;21.23;15.90;;;15.40;91.80;;;;;;5078417;28;20144;-92
2021/08/30 00:21:52;;;;;;;19.92;15.90;;;15.40;91.80;;;;;;5062107;28;20199;-92
2021/08/30 00:24:23;;;;;;;20.40;16.33;;;15.30;91.70;;;;;;5064921;28;20179;-91
2021/08/30 00:26:49;;;;;;;22.50;17.27;;;15.30;91.80;;;;;;5065117;28;20180;-91
2021/08/30 00:29:15;;;;;;;20.65;17.08;;;15.30;91.80;;;;;;5064901;28;20172;-90
2021/08/30 00:31:41;;;;;;;27.08;17.95;;;15.30;91.90;;;;;;5064869;28;20149;-89
2021/08/30 00:34:07;;;;;;;19.67;15.68;;;15.30;91.90;;;;;;5064875;28;20152;-91
2021/08/30 00:36:33;;;;;;;20.83;16.20;;;15.30;91.80;;;;;;5064819;28;20167;-92
2021/08/30 00:38:59;;;;;;;21.23;16.05;;;15.30;91.90;;;;;;5064683;28;20179;-91
2021/08/30 00:41:27;;;;;;;19.75;16.42;;;15.30;91.90;;;;;;5064711;28;20163;-92
2021/08/30 00:43:54;;;;;;;24.17;15.23;;;15.20;91.90;;;;;;5064542;28;20216;-91
2021/08/30 00:46:20;;;;;;;18.13;16.15;;;15.20;91.90;;;;;;5081716;28;20140;-92
2021/08/30 00:48:49;;;;;;;18.95;14.40;;;15.20;91.90;;;;;;5064586;28;20215;-91
2021/08/30 00:51:17;;;;;;;19.02;16.02;;;15.30;91.80;;;;;;5064406;28;20183;-88
2021/08/30 00:53:48;;;;;;;19.35;15.60;;;15.20;91.80;;;;;;5064338;28;20180;-91
2021/08/30 00:56:14;;;;;;;19.10;15.75;;;15.20;91.70;;;;;;5064466;28;20159;-90
2021/08/30 00:58:41;;;;;;;20.85;15.82;;;15.20;91.70;;;;;;5081461;28;20161;-91
2021/08/30 01:01:08;;;;;;;20.27;16.15;;;15.20;91.70;;;;;;5064269;28;20148;-91
2021/08/30 01:03:34;;;;;;;21.02;15.48;;;15.20;91.70;;;;;;5064120;28;20196;-90
2021/08/30 01:06:09;;;;;;;21.05;15.80;;;15.10;91.60;;;;;;5064227;28;20160;-91
2021/08/30 01:08:41;;;;;;;22.50;16.40;;;15.10;91.70;;;;;;5064142;28;20223;-91
2021/08/30 01:11:09;;;;;;;21.98;16.45;;;15.10;91.70;;;;;;5064158;28;20183;-91
2021/08/30 01:13:52;;;;;;;19.98;16.48;;;15.10;92.00;;;;;;5064004;28;20202;-93
2021/08/30 01:16:21;;;;;;;22.02;16.30;;;15.10;92.10;;;;;;5064065;28;21093;-91
2021/08/30 01:18:51;;;;;;;23.05;16.42;;;15.20;92.30;;;;;;5063924;28;20155;-91
2021/08/30 01:21:31;;;;;;;18.60;16.13;;;15.10;92.30;;;;;;5063845;28;20203;-90
2021/08/30 01:24:23;;;;;;;17.95;16.05;;;15.10;92.40;;;;;;5063893;28;20247;-92
2021/08/30 01:26:52;;;;;;;20.98;16.17;;;15.10;92.40;;;;;;5059897;28;20180;-90
2021/08/30 01:30:07;;;;;;;20.00;15.02;;;15.10;92.40;;;;;;5063807;28;20164;-90
2021/08/30 01:32:38;;;;;;;21.10;15.77;;;15.00;92.20;;;;;;5057025;28;20195;-90
2021/08/30 01:35:08;;;;;;;19.77;16.35;;;14.90;92.10;;;;;;5062931;28;20153;-92
2021/08/30 01:37:38;;;;;;;20.88;16.30;;;14.90;92.10;;;;;;5063649;28;20182;-90
2021/08/30 01:40:08;;;;;;;19.27;15.93;;;14.90;92.20;;;;;;5063570;28;20179;-92
2021/08/30 01:42:36;;;;;;;21.25;17.58;;;14.90;92.20;;;;;;5063463;28;20169;-90
2021/08/30 01:45:05;;;;;;;20.40;16.73;;;14.90;92.30;;;;;;5063372;28;20192;-91
2021/08/30 01:47:32;;;;;;;22.60;16.75;;;15.00;92.40;;;;;;5063444;28;20178;-90
2021/08/30 01:50:03;;;;;;;19.75;17.00;;;15.00;92.40;;;;;;5063047;28;20188;-92
2021/08/30 01:52:34;;;;;;;23.52;17.92;;;14.90;92.40;;;;;;5063295;28;20192;-90
2021/08/30 01:55:16;;;;;;;25.92;18.23;;;15.00;92.40;;;;;;5063261;28;20176;-89
2021/08/30 02:00:53;;;;;;;25.48;18.02;;;15.00;92.60;;;;;;5080354;28;20184;-91
2021/08/30 02:03:30;;;;;;;22.35;17.48;;;15.10;92.60;;;;;;5062923;28;20188;-92
2021/08/30 02:06:06;;;;;;;23.13;17.83;;;15.10;92.80;;;;;;5063060;28;20156;-91
2021/08/30 02:08:33;;;;;;;21.55;17.35;;;15.20;92.80;;;;;;5063001;28;20152;-92
2021/08/30 02:11:05;;;;;;;24.60;18.45;;;15.20;92.90;;;;;;5062878;28;20222;-93
2021/08/30 02:13:30;;;;;;;20.98;17.85;;;15.20;92.80;;;;;;5062804;28;20200;-92
2021/08/30 02:15:57;;;;;;;22.08;17.20;;;15.20;92.90;;;;;;5062811;28;20216;-90
2021/08/30 02:18:57;;;;;;;20.77;18.00;;;15.30;92.90;;;;;;5062747;28;20157;-91
2021/08/30 02:21:50;;;;;;;24.92;17.83;;;15.30;92.80;;;;;;5046726;28;20171;-90
2021/08/30 02:24:21;;;;;;;24.75;17.38;;;15.20;92.80;;;;;;5040648;23;20242;-88
2021/08/30 02:26:59;;;;;;;19.65;17.58;;;15.30;92.80;;;;;;5034484;28;20173;-88
2021/08/30 02:29:28;;;;;;;24.13;18.42;;;15.20;92.70;;;;;;5016446;28;20184;-88
2021/08/30 02:31:58;;;;;;;18.77;16.77;;;15.20;92.70;;;;;;5016634;28;20207;-88
2021/08/30 02:34:29;;;;;;;23.30;17.02;;;15.20;92.70;;;;;;5014257;28;20177;-88
2021/08/30 02:36:57;;;;;;;26.27;17.73;;;15.20;92.70;;;;;;4996794;28;20172;-88
2021/08/30 02:39:24;;;;;;;18.63;16.55;;;15.20;92.70;;;;;;5014168;28;20173;-88
2021/08/30 02:41:51;;;;;;;24.15;17.90;;;15.20;92.70;;;;;;5014159;28;20173;-88
2021/08/30 02:44:17;;;;;;;22.08;17.58;;;15.20;92.70;;;;;;4996158;28;20259;-88
2021/08/30 02:46:46;;;;;;;24.60;18.05;;;15.30;92.80;;;;;;4996449;28;20177;-87
2021/08/30 02:49:14;;;;;;;24.27;18.90;;;15.20;92.80;;;;;;4996761;28;20173;-88
2021/08/30 02:51:43;;;;;;;28.63;18.88;;;15.20;92.90;;;;;;5014003;28;20170;-88
2021/08/30 02:54:10;;;;;;;20.58;17.20;;;15.30;93.00;;;;;;4996279;28;20204;-88
2021/08/30 02:56:37;;;;;;;20.85;18.52;;;15.30;93.00;;;;;;5013883;28;20256;-88
2021/08/30 02:59:03;;;;;;;23.60;18.13;;;15.30;93.00;;;;;;5013222;28;20627;-88
2021/08/30 03:01:31;;;;;;;25.42;18.85;;;15.30;93.00;;;;;;5013842;28;20181;-88
2021/08/30 03:03:56;;;;;;;21.92;19.13;;;15.30;92.90;;;;;;5013687;28;20197;-88
2021/08/30 03:06:24;;;;;;;23.40;18.05;;;15.30;92.90;;;;;;4996186;28;20177;-88
2021/08/30 03:08:49;;;;;;;23.98;19.83;;;15.30;92.90;;;;;;5013265;28;20184;-88
2021/08/30 03:11:16;;;;;;;23.50;19.00;;;15.30;93.00;;;;;;5012490;28;20732;-88
2021/08/30 03:13:43;;;;;;;23.98;18.65;;;15.30;93.00;;;;;;4996067;28;20232;-88
2021/08/30 03:16:09;;;;;;;22.40;18.30;;;15.30;93.00;;;;;;5013899;28;20220;-88
2021/08/30 03:18:40;;;;;;;25.10;18.30;;;15.30;92.90;;;;;;5013832;28;20181;-87
2021/08/30 03:21:07;;;;;;;20.45;18.13;;;15.30;92.80;;;;;;4996067;28;20571;-88
2021/08/30 03:23:35;;;;;;;26.48;18.10;;;15.30;92.80;;;;;;5013559;28;20259;-88
2021/08/30 03:26:02;;;;;;;24.83;20.15;;;15.20;92.70;;;;;;4995917;28;20184;-88
2021/08/30 03:28:29;;;;;;;21.83;18.40;;;15.20;92.70;;;;;;4996241;28;20213;-88
2021/08/30 03:30:56;;;;;;;23.73;18.65;;;15.20;92.70;;;;;;5012298;28;20173;-88
2021/08/30 03:33:23;;;;;;;20.80;18.42;;;15.20;92.60;;;;;;4995729;28;20197;-88
2021/08/30 03:35:52;;;;;;;23.52;18.35;;;15.10;92.60;;;;;;5012196;28;20552;-88
2021/08/30 03:38:20;;;;;;;23.38;18.67;;;15.10;92.60;;;;;;5012167;28;20184;-88
2021/08/30 03:40:45;;;;;;;23.60;18.65;;;15.00;92.60;;;;;;5013384;28;20200;-87
2021/08/30 03:43:12;;;;;;;21.35;18.45;;;15.00;92.60;;;;;;4996000;28;20625;-88
2021/08/30 03:45:38;;;;;;;24.33;18.77;;;15.00;92.50;;;;;;4995832;28;20181;-88
2021/08/30 03:48:05;;;;;;;26.27;19.52;;;14.90;92.60;;;;;;4995688;28;20268;-88
2021/08/30 03:50:31;;;;;;;23.50;20.15;;;15.00;92.60;;;;;;4995651;28;20528;-88
2021/08/30 03:53:00;;;;;;;26.15;19.85;;;14.90;92.60;;;;;;4995627;28;20197;-88
2021/08/30 03:55:26;;;;;;;30.58;20.00;;;15.00;92.70;;;;;;5013511;28;20661;-88
2021/08/30 03:57:56;;;;;;;27.33;21.42;;;15.00;92.80;;;;;;5015867;28;20166;-88
2021/08/30 04:00:22;;;;;;;28.40;21.65;;;15.00;92.80;;;;;;4999511;28;20260;-88
2021/08/30 04:02:49;;;;;;;35.75;20.92;;;15.00;92.90;;;;;;4999406;28;20204;-87
2021/08/30 04:05:18;;;;;;;21.98;19.27;;;15.00;92.90;;;;;;4999350;28;20204;-88
2021/08/30 04:07:44;;;;;;;24.65;20.30;;;15.00;92.90;;;;;;4999484;28;20260;-88
2021/08/30 04:10:10;;;;;;;24.58;18.88;;;15.00;92.90;;;;;;5017014;28;20247;-88
2021/08/30 04:12:37;;;;;;;29.70;19.98;;;15.10;92.90;;;;;;5017165;28;20220;-88
2021/08/30 04:15:03;;;;;;;26.48;20.95;;;15.10;93.00;;;;;;5016897;28;20178;-88
2021/08/30 04:17:29;;;;;;;31.85;21.55;;;15.10;93.00;;;;;;4999145;28;20188;-88
2021/08/30 04:19:55;;;;;;;28.92;20.17;;;15.10;92.90;;;;;;4999200;28;20177;-88
2021/08/30 04:22:20;;;;;;;27.17;20.17;;;15.10;92.90;;;;;;4998963;28;20213;-88
2021/08/30 04:24:46;;;;;;;25.83;20.33;;;15.00;92.90;;;;;;4999132;28;20209;-88
2021/08/30 04:27:12;;;;;;;26.25;20.20;;;15.10;93.00;;;;;;5016921;28;20177;-88
2021/08/30 04:29:38;;;;;;;30.25;22.52;;;15.10;93.00;;;;;;5016933;28;20181;-88
2021/08/30 04:32:07;;;;;;;25.65;19.85;;;15.20;93.00;;;;;;5016560;28;20162;-88
2021/08/30 04:34:33;;;;;;;28.38;20.80;;;15.10;93.00;;;;;;5016489;28;20256;-88
2021/08/30 04:36:59;;;;;;;25.35;20.38;;;15.10;93.00;;;;;;4998900;28;20182;-88
2021/08/30 04:39:25;;;;;;;28.40;21.77;;;15.10;93.00;;;;;;4998864;28;20177;-88
2021/08/30 04:41:50;;;;;;;30.20;20.50;;;15.10;93.00;;;;;;5016372;28;20178;-88
2021/08/30 04:44:16;;;;;;;26.33;20.67;;;15.10;93.00;;;;;;5016254;28;20209;-88
2021/08/30 04:46:42;;;;;;;29.15;20.20;;;15.10;93.00;;;;;;4998721;28;20184;-88
2021/08/30 04:49:07;;;;;;;28.88;20.27;;;15.10;93.00;;;;;;4999221;28;20181;-88
2021/08/30 04:51:33;;;;;;;26.48;20.65;;;15.10;93.00;;;;;;5016104;28;20172;-88
2021/08/30 04:53:59;;;;;;;30.05;21.33;;;15.10;93.10;;;;;;5016098;28;20201;-87
2021/08/30 04:56:24;;;;;;;28.92;20.65;;;15.10;93.10;;;;;;4998593;28;20173;-88
2021/08/30 04:58:50;;;;;;;28.42;19.17;;;15.10;93.10;;;;;;4998450;28;20547;-88
2021/08/30 05:01:16;;;;;;;27.05;20.23;;;15.20;93.10;;;;;;4998489;28;20177;-88
2021/08/30 05:03:41;;;;;;;28.70;20.88;;;15.20;93.00;;;;;;5015810;28;20251;-88
2021/08/30 05:06:07;;;;;;;26.20;20.05;;;15.30;93.10;;;;;;4999275;28;20181;-88
2021/08/30 05:08:33;;;;;;;25.52;19.35;;;15.20;92.90;;;;;;4997586;28;20174;-88
2021/08/30 05:10:58;;;;;;;24.85;19.77;;;15.20;92.90;;;;;;4998670;28;20169;-88
2021/08/30 05:13:26;;;;;;;25.85;19.33;;;15.20;92.90;;;;;;4998191;28;20193;-88
2021/08/30 05:15:52;;;;;;;29.98;19.50;;;15.20;92.90;;;;;;5016071;28;20162;-88
2021/08/30 05:18:17;;;;;;;22.98;18.73;;;15.20;93.00;;;;;;4998120;28;20185;-88
2021/08/30 05:20:46;;;;;;;23.52;19.40;;;15.30;92.90;;;;;;5015617;28;20204;-88
2021/08/30 05:23:12;;;;;;;23.77;18.73;;;15.30;93.00;;;;;;5014311;28;20584;-88
2021/08/30 05:25:37;;;;;;;25.17;19.58;;;15.30;92.90;;;;;;4997961;28;20209;-88
2021/08/30 05:28:03;;;;;;;36.67;19.27;;;15.30;93.00;;;;;;4997980;28;20174;-88
2021/08/30 05:30:29;;;;;;;22.45;20.02;;;15.30;93.00;;;;;;4997930;28;20174;-88
2021/08/30 05:32:54;;;;;;;24.15;19.08;;;15.30;93.00;;;;;;4997915;28;20193;-88
2021/08/30 05:35:20;;;;;;;27.38;18.52;;;15.40;93.00;;;;;;5015376;28;20530;-88
2021/08/30 05:37:46;;;;;;;23.92;19.13;;;15.40;93.10;;;;;;4997833;28;20177;-88
2021/08/30 05:40:12;;;;;;;30.38;19.80;;;15.40;93.10;;;;;;5015244;28;20182;-88
2021/08/30 05:42:38;;;;;;;26.02;20.27;;;15.40;93.20;;;;;;5015232;28;20689;-87
2021/08/30 05:45:04;;;;;;;24.83;19.13;;;15.40;93.20;;;;;;4997603;28;20239;-87
2021/08/30 05:47:30;;;;;;;24.92;19.05;;;15.50;93.20;;;;;;4997606;28;20173;-88
2021/08/30 05:49:55;;;;;;;25.75;19.20;;;15.50;93.30;;;;;;5015098;28;20173;-87
2021/08/30 05:52:24;;;;;;;25.88;18.88;;;15.60;93.30;;;;;;4997450;28;20240;-87
2021/08/30 05:54:50;;;;;;;28.35;19.25;;;15.60;93.40;;;;;;5014968;28;20228;-87
2021/08/30 05:57:15;;;;;;;25.00;18.70;;;15.70;93.40;;;;;;5014934;28;20170;-87
2021/08/30 05:59:41;;;;;;;25.85;17.98;;;15.70;93.40;;;;;;5013728;28;20181;-87
2021/08/30 06:02:07;;;;;;;27.20;19.63;;;15.70;93.40;;;;;;5014780;28;20543;-87
2021/08/30 06:04:32;;;;;;;27.83;19.30;;;15.80;93.50;;;;;;5014836;28;20206;-87
2021/08/30 06:06:58;;;;;;;28.70;19.30;;;15.80;93.50;;;;;;5013530;28;20331;-87
2021/08/30 06:09:24;;;;;;;24.80;19.10;;;15.90;93.50;;;;;;4997123;28;20174;-87
2021/08/30 06:11:51;;;;;;;23.90;18.55;;;15.90;93.40;;;;;;5014967;28;20204;-87
2021/08/30 06:14:17;;;;;;;28.30;20.08;;;16.00;93.40;;;;;;4997295;28;20205;-87
2021/08/30 06:16:42;;;;;;;24.42;18.85;;;16.10;93.50;;;;;;4997030;28;20181;-87
2021/08/30 06:19:08;;;;;;;31.20;19.50;;;16.20;93.50;;;;;;5014346;28;20174;-87
2021/08/30 06:21:34;;;;;;;28.58;18.65;;;16.20;93.40;;;;;;5014635;28;20243;-87
2021/08/30 06:23:59;;;;;;;25.88;19.17;;;16.20;93.40;;;;;;5014189;28;20294;-87
2021/08/30 06:26:25;;;;;;;23.95;18.52;;;16.30;93.30;;;;;;4996825;28;20653;-87
2021/08/30 06:28:51;;;;;;;23.35;18.08;;;16.30;93.20;;;;;;5014310;28;20177;-87
2021/08/30 06:31:16;;;;;;;33.63;17.38;;;16.30;93.20;;;;;;5014252;28;20178;-87
2021/08/30 06:33:42;;;;;;;24.80;16.10;;;16.40;93.20;;;;;;5014247;28;20284;-87
2021/08/30 06:36:09;;;;;;;25.65;15.95;;;16.40;93.20;;;;;;4996693;28;20181;-87
2021/08/30 06:38:35;;;;;;;20.90;14.80;;;16.50;92.90;;;;;;5012922;28;20594;-87
2021/08/30 06:41:00;;;;;;;22.33;14.43;;;16.60;92.80;;;;;;5014144;28;20256;-87
2021/08/30 06:43:26;;;;;;;15.48;13.80;;;16.60;92.40;;;;;;5013958;28;20189;-87
2021/08/30 06:45:52;;;;;;;19.17;12.63;;;16.70;92.10;;;;;;5014069;28;20637;-87
2021/08/30 06:48:17;;;;;;;16.10;12.50;;;16.80;91.80;;;;;;5014083;28;20253;-87
2021/08/30 06:50:43;;;;;;;17.65;12.07;;;16.80;91.30;;;;;;5012752;28;20223;-87
2021/08/30 06:53:11;;;;;;;15.30;11.80;;;16.90;91.10;;;;;;5013929;28;20193;-87
2021/08/30 06:55:37;;;;;;;16.75;12.55;;;16.90;90.90;;;;;;4996387;28;20204;-87
2021/08/30 06:58:03;;;;;;;15.80;12.45;;;16.90;90.90;;;;;;5013940;28;20676;-87
2021/08/30 07:00:29;;;;;;;16.27;12.35;;;17.10;91.10;;;;;;4996246;28;20181;-87
2021/08/30 07:02:54;;;;;;;13.75;11.00;;;17.20;91.40;;;;;;5012508;28;20197;-87
2021/08/30 07:05:21;;;;;;;15.40;12.32;;;17.30;90.90;;;;;;4996120;28;20206;-87
2021/08/30 07:07:47;;;;;;;17.23;11.93;;;17.30;90.80;;;;;;4996196;28;20178;-88
2021/08/30 07:10:13;;;;;;;17.52;11.98;;;17.30;90.60;;;;;;5013723;28;20169;-88
2021/08/30 07:12:39;;;;;;;13.73;11.43;;;17.30;90.30;;;;;;4995991;28;20274;-88
2021/08/30 07:15:06;;;;;;;14.02;11.55;;;17.40;90.30;;;;;;4996061;28;20231;-88
2021/08/30 07:17:32;;;;;;;13.65;11.75;;;17.40;90.20;;;;;;4996055;28;20235;-88
2021/08/30 07:19:57;;;;;;;14.07;10.85;;;17.50;90.10;;;;;;5013625;28;20174;-88
2021/08/30 07:22:23;;;;;;;17.73;10.95;;;17.50;89.50;;;;;;5013622;28;20212;-88
2021/08/30 07:24:49;;;;;;;16.73;10.68;;;17.60;89.50;;;;;;4995928;28;20195;-88
2021/08/30 07:27:14;;;;;;;13.13;10.50;;;17.60;89.60;;;;;;4995871;28;20180;-88
2021/08/30 07:29:40;;;;;;;10.98;9.85;;;17.60;89.20;;;;;;5012230;28;20186;-88
2021/08/30 07:32:06;;;;;;;17.20;10.18;;;17.70;88.70;;;;;;4995043;28;20177;-87
2021/08/30 07:34:32;;;;;;;17.02;10.93;;;17.70;88.60;;;;;;4995734;28;20231;-87
2021/08/30 07:36:57;;;;;;;13.18;10.93;;;17.60;89.00;;;;;;4995809;28;20185;-87
2021/08/30 07:39:23;;;;;;;16.13;10.80;;;17.70;89.20;;;;;;5013358;28;20231;-87
2021/08/30 07:41:50;;;;;;;14.50;10.57;;;17.70;88.80;;;;;;5013333;28;20185;-88
2021/08/30 07:44:16;;;;;;;11.93;10.32;;;17.80;88.50;;;;;;4995607;28;20201;-88
2021/08/30 07:46:41;;;;;;;13.70;10.15;;;17.80;88.80;;;;;;5013343;28;20545;-88
2021/08/30 07:49:07;;;;;;;13.50;9.80;;;17.80;88.30;;;;;;4995739;28;20308;-87
2021/08/30 07:51:34;;;;;;;16.95;10.63;;;17.70;87.90;;;;;;5013247;28;20170;-87
2021/08/30 07:54:00;;;;;;;14.63;10.45;;;17.70;88.40;;;;;;5013149;28;20195;-87
2021/08/30 07:56:26;;;;;;;13.73;9.98;;;17.70;88.30;;;;;;5013223;28;20637;-87
2021/08/30 07:58:52;;;;;;;15.10;10.35;;;17.80;88.30;;;;;;4996535;28;20235;-87
2021/08/30 08:01:18;;;;;;;15.98;9.45;;;17.80;88.20;;;;;;4995620;28;20177;-88
2021/08/30 08:03:43;;;;;;;11.43;9.07;;;17.90;88.00;;;;;;5013018;28;20205;-87
2021/08/30 08:06:09;;;;;;;11.82;9.35;;;17.90;87.60;;;;;;4995876;28;20173;-87
2021/08/30 08:08:34;;;;;;;13.15;9.23;;;17.90;87.30;;;;;;5013372;28;20185;-87
2021/08/30 08:11:00;;;;;;;10.35;8.65;;;17.90;87.20;;;;;;5013103;28;20211;-87
2021/08/30 08:13:29;;;;;;;11.15;9.10;;;17.70;86.40;;;;;;5013010;28;20190;-87
2021/08/30 08:15:55;;;;;;;11.27;8.85;;;17.60;86.80;;;;;;5013016;28;20170;-87
2021/08/30 08:18:20;;;;;;;11.80;8.55;;;17.70;87.00;;;;;;5013027;28;20209;-87
2021/08/30 08:20:47;;;;;;;11.90;9.40;;;17.60;86.80;;;;;;4995494;28;20208;-87
2021/08/30 08:23:12;;;;;;;11.30;9.15;;;17.60;86.60;;;;;;5011752;28;20214;-87
2021/08/30 08:25:38;;;;;;;13.18;10.13;;;17.70;86.90;;;;;;5012862;28;20224;-87
2021/08/30 08:28:05;;;;;;;12.35;9.07;;;17.80;87.50;;;;;;5013243;28;20192;-87
2021/08/30 08:30:32;;;;;;;11.35;8.93;;;17.90;87.50;;;;;;5011733;28;20645;-87
2021/08/30 08:32:58;;;;;;;12.95;8.80;;;18.00;86.60;;;;;;5011604;28;20280;-87
2021/08/30 08:35:24;;;;;;;10.82;8.10;;;18.10;86.50;;;;;;4995344;28;20185;-87
2021/08/30 08:37:50;;;;;;;12.15;8.48;;;18.20;85.90;;;;;;4995247;28;20177;-87
2021/08/30 08:40:16;;;;;;;13.48;8.52;;;18.30;86.80;;;;;;5012774;28;20264;-87
2021/08/30 08:42:43;;;;;;;14.43;8.20;;;18.40;85.00;;;;;;4995809;28;20677;-87
2021/08/30 08:45:11;;;;;;;14.38;8.80;;;18.40;85.10;;;;;;4998970;28;20201;-87
2021/08/30 08:47:38;;;;;;;9.07;7.72;;;18.50;85.00;;;;;;4998576;28;20180;-87
2021/08/30 08:50:07;;;;;;;9.88;7.35;;;18.40;84.40;;;;;;5016424;28;20177;-87
2021/08/30 08:52:34;;;;;;;10.23;7.05;;;18.30;83.30;;;;;;4998468;28;20284;-87
2021/08/30 08:55:00;;;;;;;8.07;7.25;;;18.20;83.40;;;;;;4998579;28;20177;-87
2021/08/30 08:57:27;;;;;;;12.40;7.50;;;18.20;83.70;;;;;;5016121;28;20235;-87
2021/08/30 09:00:00;;;;;;;10.23;7.68;;;18.10;84.10;;;;;;5016019;28;20174;-87
2021/08/30 09:02:31;;;;;;;10.70;7.45;;;18.00;84.40;;;;;;5015977;28;20339;-87
2021/08/30 09:05:00;;;;;;;10.38;7.78;;;18.00;83.90;;;;;;4998435;28;20573;-87
2021/08/30 09:07:44;;;;;;;10.07;7.50;;;18.00;84.30;;;;;;4998323;28;20204;-87
2021/08/30 09:10:13;;;;;;;11.05;8.15;;;18.00;84.60;;;;;;4998262;28;20200;-87
2021/08/30 09:12:42;;;;;;;12.75;9.23;;;18.00;84.60;;;;;;5015754;28;20182;-87
2021/08/30 09:15:26;;;;;;;10.43;8.40;;;18.00;84.80;;;;;;5014631;28;20178;-88
2021/08/30 09:17:57;;;;;;;10.25;7.38;;;18.00;83.90;;;;;;4998148;28;20197;-87
2021/08/30 09:20:26;;;;;;;13.52;7.45;;;18.00;83.70;;;;;;4998041;28;20644;-87
2021/08/30 09:22:52;;;;;;;10.40;7.50;;;18.00;83.90;;;;;;4998318;28;20653;-87
2021/08/30 09:25:18;;;;;;;9.18;7.10;;;18.10;83.80;;;;;;5015467;28;20574;-87
2021/08/30 09:27:51;;;;;;;8.50;7.53;;;18.10;83.50;;;;;;5015531;28;20169;-87
2021/08/30 09:30:23;;;;;;;10.95;8.02;;;18.10;84.00;;;;;;4997858;28;20653;-87
2021/08/30 09:32:49;;;;;;;10.38;8.05;;;18.20;83.60;;;;;;4997765;28;20197;-86
2021/08/30 09:35:16;;;;;;;8.98;6.93;;;18.20;84.00;;;;;;5015405;28;20707;-87
2021/08/30 09:37:45;;;;;;;9.27;7.47;;;18.20;83.70;;;;;;5015358;28;20667;-87
2021/08/30 09:40:12;;;;;;;13.75;7.18;;;18.20;82.60;;;;;;4997741;28;20220;-87
2021/08/30 09:42:50;;;;;;;11.82;6.97;;;18.20;82.50;;;;;;5013944;28;20459;-87
2021/08/30 09:45:20;;;;;;;6.95;6.22;;;18.20;82.80;;;;;;5015143;28;20604;-87
2021/08/30 09:47:54;;;;;;;8.20;6.40;;;18.20;81.80;;;;;;5015174;28;20157;-87
2021/08/30 09:50:26;;;;;;;7.97;6.88;;;18.10;83.20;;;;;;5013927;28;20170;-87
2021/08/30 09:52:52;;;;;;;7.35;6.60;;;18.00;82.00;;;;;;5015156;28;20255;-87
2021/08/30 09:55:18;;;;;;;9.07;6.82;;;17.90;81.80;;;;;;4996641;28;20178;-87
2021/08/30 09:57:49;;;;;;;10.73;7.10;;;17.90;81.80;;;;;;4997468;28;20663;-87
2021/08/30 10:00:16;;;;;;;8.80;7.30;;;17.80;82.20;;;;;;5015253;28;20164;-87
2021/08/30 10:02:46;;;;;;;9.05;7.03;;;17.70;82.90;;;;;;5013549;28;20193;-87
2021/08/30 10:05:14;;;;;;;9.65;6.72;;;17.70;83.20;;;;;;5014828;28;20182;-87
2021/08/30 10:07:40;;;;;;;11.70;7.10;;;17.60;83.80;;;;;;5014775;28;20223;-87
2021/08/30 10:10:07;;;;;;;12.60;6.93;;;17.60;83.40;;;;;;5014774;28;20169;-87
2021/08/30 10:12:32;;;;;;;15.45;7.10;;;17.50;83.50;;;;;;5014580;28;20193;-87
2021/08/30 10:14:58;;;;;;;8.43;6.30;;;17.60;83.10;;;;;;4997162;28;20184;-87
2021/08/30 10:17:25;;;;;;;10.75;7.13;;;17.60;83.20;;;;;;5014550;28;20188;-87
2021/08/30 10:19:59;;;;;;;7.20;6.32;;;17.60;83.20;;;;;;5013387;28;20194;-87
2021/08/30 10:22:26;;;;;;;12.68;6.72;;;17.60;82.50;;;;;;4996775;28;20693;-87
2021/08/30 10:24:53;;;;;;;10.80;6.63;;;17.60;83.20;;;;;;5014412;28;20204;-87
2021/08/30 10:27:55;;;;;;;9.57;6.53;;;17.60;82.60;;;;;;4996778;28;20173;-87
2021/08/30 10:30:23;;;;;;;10.00;5.72;;;17.60;82.80;;;;;;5004520;28;20181;-87
2021/08/30 10:32:56;;;;;;;8.90;6.18;;;17.70;82.00;;;;;;4996672;28;20204;-87
2021/08/30 10:35:25;;;;;;;8.40;6.50;;;17.60;81.40;;;;;;5014298;28;20162;-88
2021/08/30 10:38:21;;;;;;;7.78;5.65;;;17.60;82.30;;;;;;4996770;28;20664;-87
2021/08/30 10:40:52;;;;;;;8.35;6.05;;;17.70;82.00;;;;;;4984618;28;20189;-88
2021/08/30 10:43:21;;;;;;;7.75;6.40;;;17.70;81.60;;;;;;4996473;28;20232;-87
2021/08/30 10:45:57;;;;;;;8.43;6.15;;;17.70;81.30;;;;;;5014047;28;20201;-87
2021/08/30 10:48:39;;;;;;;9.60;6.80;;;17.80;81.80;;;;;;5014081;28;20149;-87
2021/08/30 10:51:37;;;;;;;7.43;6.53;;;17.80;82.10;;;;;;4996493;28;20219;-88
2021/08/30 10:54:09;;;;;;;6.72;5.85;;;18.00;82.00;;;;;;4985063;28;20205;-87
2021/08/30 10:56:35;;;;;;;7.93;6.63;;;18.00;81.30;;;;;;4996429;28;20177;-87
2021/08/30 10:59:06;;;;;;;9.23;6.35;;;18.00;80.90;;;;;;5014089;28;20176;-87
2021/08/30 11:01:38;;;;;;;6.65;5.85;;;18.00;79.60;;;;;;4996595;28;20166;-87
2021/08/30 11:04:05;;;;;;;7.53;6.03;;;18.00;79.80;;;;;;4996010;28;20556;-87
2021/08/30 11:06:31;;;;;;;11.07;6.90;;;18.00;79.70;;;;;;5013704;28;20169;-87
2021/08/30 11:08:57;;;;;;;6.45;5.72;;;18.00;80.40;;;;;;5014369;28;20165;-86
2021/08/30 11:11:25;;;;;;;7.78;6.30;;;17.90;80.00;;;;;;5013722;28;20174;-86
2021/08/30 11:13:56;;;;;;;7.55;6.18;;;18.00;79.90;;;;;;4996011;28;20304;-86
2021/08/30 11:16:23;;;;;;;7.50;6.70;;;17.90;79.30;;;;;;5012435;28;20177;-86
2021/08/30 11:19:01;;;;;;;8.43;6.35;;;17.90;79.70;;;;;;4995932;28;20181;-85
2021/08/30 11:21:46;;;;;;;9.77;6.45;;;17.90;80.40;;;;;;4995949;28;20268;-86
2021/08/30 11:24:32;;;;;;;7.65;6.95;;;17.80;80.00;;;;;;4995775;28;20649;-86
2021/08/30 11:27:09;;;;;;;9.73;6.38;;;17.90;80.30;;;;;;4995852;28;20676;-86
2021/08/30 11:29:43;;;;;;;12.80;6.70;;;18.00;80.50;;;;;;5014027;28;20679;-86
2021/08/30 11:32:09;;;;;;;7.97;6.28;;;18.00;80.60;;;;;;5013407;28;20219;-85
2021/08/30 11:34:37;;;;;;;11.32;7.28;;;18.20;79.80;;;;;;5013429;28;20173;-86
2021/08/30 11:37:04;;;;;;;7.25;6.38;;;18.20;79.40;;;;;;5013656;28;20687;-87
2021/08/30 11:39:34;;;;;;;9.18;7.15;;;18.30;79.30;;;;;;4995779;28;20276;-86
2021/08/30 11:42:03;;;;;;;8.13;7.03;;;18.60;81.30;;;;;;4995685;28;20181;-86
2021/08/30 11:44:30;;;;;;;11.98;6.82;;;18.90;79.30;;;;;;4995625;28;20208;-87
2021/08/30 11:47:00;;;;;;;13.98;7.18;;;19.10;78.30;;;;;;5013557;28;20255;-86
2021/08/30 11:49:32;;;;;;;7.63;6.60;;;19.10;77.60;;;;;;4995652;28;20552;-86
2021/08/30 11:52:00;;;;;;;7.72;6.70;;;19.20;77.50;;;;;;5011966;28;20169;-86
2021/08/30 11:54:27;;;;;;;7.70;6.45;;;19.10;77.50;;;;;;4995620;28;20178;-86
2021/08/30 11:57:00;;;;;;;14.90;7.05;;;19.30;77.90;;;;;;4995567;28;20209;-86
2021/08/30 11:59:28;;;;;;;9.63;7.18;;;19.30;77.70;;;;;;5013528;28;20569;-86
2021/08/30 12:01:54;;;;;;;7.88;6.85;;;19.40;77.00;;;;;;4995609;28;20646;-86
2021/08/30 12:04:20;;;;;;;20.70;7.32;;;19.40;76.40;;;;;;5012921;28;20248;-86
2021/08/30 12:06:52;;;;;;;9.02;6.95;;;19.40;76.70;;;;;;5013112;28;20165;-86
2021/08/30 12:09:17;;;;;;;8.02;6.95;;;19.30;77.10;;;;;;5013119;28;20232;-86
2021/08/30 12:11:48;;;;;;;9.07;6.95;;;19.30;77.80;;;;;;4995508;28;20216;-86
2021/08/30 12:14:14;;;;;;;9.32;6.70;;;19.30;77.90;;;;;;5011723;28;20288;-86
2021/08/30 12:16:43;;;;;;;12.98;7.45;;;19.30;77.20;;;;;;5011699;28;20269;-86
2021/08/30 12:19:09;;;;;;;10.80;7.35;;;19.40;77.20;;;;;;5016039;28;20174;-86
2021/08/30 12:21:38;;;;;;;11.70;6.93;;;19.30;77.50;;;;;;5016735;28;20212;-87
2021/08/30 12:24:08;;;;;;;10.55;6.90;;;19.20;77.10;;;;;;4998779;28;20220;-85
2021/08/30 12:26:39;;;;;;;8.65;7.63;;;19.20;77.80;;;;;;5015488;28;20162;-86
2021/08/30 12:29:05;;;;;;;10.73;7.43;;;19.10;78.40;;;;;;4999269;28;20356;-86
2021/08/30 12:31:33;;;;;;;11.25;7.10;;;19.10;78.10;;;;;;5015374;28;20212;-86
2021/08/30 12:34:10;;;;;;;10.68;6.65;;;19.10;77.20;;;;;;5015210;28;20197;-86
2021/08/30 12:36:36;;;;;;;9.02;7.18;;;19.00;78.50;;;;;;4999430;28;20636;-86
2021/08/30 12:39:06;;;;;;;8.57;7.50;;;19.00;77.80;;;;;;4998766;28;20264;-86
2021/08/30 12:41:33;;;;;;;8.65;7.75;;;19.00;78.80;;;;;;4998750;28;20177;-86
2021/08/30 12:43:59;;;;;;;8.32;7.00;;;18.80;79.50;;;;;;5014895;28;20300;-86